Winooski, Vermont
Current Conditions -  °F | °C
As of 7:54 AM on Friday 24 Oct 2014 (Local Time) from KBTV Reporting Station
Haze Haze  
Wind Chill: 37°   Ceiling: 500
Heat Index: 42°   Visibility: 2.5mi
Dew Point: 40°   Wind: 8mph
Humidity: 92%   Direction: 360°N
Pressure: 29.87"   Gusts: NA
Location:  44.49°N, 73.19°W
Report Text: KBTV 241154Z 36007KT 2 1/2SM BR OVC005 06/04 A2987 RMK AO2 RAE02 SLP118 P0000 60010 70050 T00560044 10067 20056 53009
Loading
Personal Weather Stations






























Interactive Weather Map
Tropical Storm Tracking
New forecast layout! Learn more

10-Day Weather Forecast

Advertisements
Track Severe Weather on mobile